메인 페이지
METAR-TAF:

METAR-TAF

공항 :

브라질리아, 브라질 연방구, 브라질

브라질리아 국제공항

위도: 15-52S, 경도: 047-56W, 고도: 1061m

현재 날씨관측

예보는 53분 전, 05:00시(UTC)에 발표되었습니다.
여러 방향의 바람 2kt
온도 19°C
습도 73%
기압 1019 hPa
시정 10km 이상
1500m 미만 상공 구름 및 적란운 없음

METAR: SBBR 180500Z VRB02KT CAVOK 19/14 Q1019

시각: 03:53 (05:53 UTC)

예보

예보는 1 시간 53분 전, 04:00시(UTC)에 발표되었습니다.
예보 대상 시간: 18일 06시부터 19일 06시까지 (UTC)
동북동7kt
시정 10km 이상
1500m 미만 상공 구름 및 적란운 없음
18일 1200시부터 (UTC)
동북동11kt
시정: 9000m
18일 1800시부터 (UTC)
북북동10kt
시정 10km 이상
고도 3500ft 상공 구름 보통
고도 4000ft 상공 구름 조금, 타워링 적운.
18일 2300시부터 (UTC)
kt
시정 10km 이상
1500m 미만 상공 구름 및 적란운 없음

TAF: SBBR 180400Z 1806/1906 07007KT CAVOK TN18/1808Z TX30/1816Z FM181200 07011KT 9000 NSC FM181800 03010KT 9999 SCT035 FEW040TCU FM182300 00000KT CAVOK RMK PCZ

4,000개 이상의 공항 관측 자료 및 예보 (METAR 및 TAF 보고).

지도상에서 검색 가능한 기상관측소가 노란 점과 빨간 점으로 표시되어 있습니다.

기상관측소 명을 보려면 표시 위로 마우스를 이동하세요.

날씨 관측과 예보를 보려면 클릭하세요.

지도 변경 : 확대하려면 엑스 표시가 있는 녹색 버튼, 축소하려면 빼기 표시가 있는 녹색 버튼, 다음 페이지의 지도를 보려면 녹색 화살표를 클릭하세요.


METAR-TAF: